Емельяново

СКИДКИ НА СМАРТФОНЫ!

Карта отелей и гостиниц, располагающихся рядом с аэропортом Емельяново :

Емельяново
Красноярск
Красноярский край 56° 10' 22.5588" N, 92° 29' 35.7" E
Код аэродрома ИКАО
UNKL
Код аэродрома RU
УНКЛ
Координаты
N56.17293° E092.49325°
Превышение над уровнем моря
287
Основная полоса
11/29
Курс магнитный
109,1/289,1
Длина основной ВПП
3705
Ширина основной ВПП
60
Покрытие основной ВПП
Твёрдое (асфальтобетон)
Освещение ВПП
Постоянное
Тип: 
Аэродром
Класс аэродрома: 
Международный
Принадлежность: 
ГА
Статус: 
Действующий
Сайт: 
www.yemelyanovo.ru
E-mail аэродрома: 
office@kia.aero
Страна: 
Россия
Регион: 
Красноярский край
Город: 
Красноярск
Дополнительная информация: 
Оператор: ООО "Аэропорт Емельяново". Построен в 1970 г, введен в эксплуатацию 25 октября 1980 г. В 2016 г. аэропорт вошел в перечень аэропортов федерального значения. Имеет выгодное географическое положение и является стратегическим транзитным узлом в воздушном сообщении между Европой и Азией. Военный индекс: XNKL / ЬНКЛ.
Схемы аэропортов: 
Погода: 

Авиационная погода в Емельяново

Регион: 
Погода METAR: 
UNKL 091530Z 28001MPS CAVOK 14/13 Q1010 R29/CLRD65 NOSIG RMK QFE732
Время наблюдения
2022-08-09T15:30:00Z
Температура C
14.0
Точка росы
13.0
Направление ветра
280
Скорость ветра (узлы)
2
Метео видимость
6.21
Облачность
CAVOK
Нижняя граница облачности (футы)
Явления погоды
Условия полета
VFR
Аэропорт подробнее: 

Скидки на навигаторы!

Найти трансфер

С помощью этой формы Вы можете найти трансфер из аэропорта Емельяново в город, аэропорт или вокзал:

Погода в аэропортах:

Авиационная погода в Липецке

Регион: 
Погода METAR: 
UUOL 091530Z 31003MPS 260V020 9000 -TSRA SCT///CB 24/15 Q1019 R33/290150 TEMPO VRB15MPS 1000 TSRAGR SQ BKN015CB
Время наблюдения
2022-08-09T15:30:00Z
Температура C
24.0
Точка росы
15.0
Направление ветра
310
Скорость ветра (узлы)
6
Метео видимость
5.59
Облачность
Нижняя граница облачности (футы)
Явления погоды
-TSRA
Условия полета
Аэропорт подробнее: 
TSRA - гроза с дождём;

Авиационная погода в Сургуте

Регион: 
Погода METAR: 
USRR 091430Z 01004MPS 2300 HZ BKN022 24/19 Q1016 R25/CLRD60 TEMPO 1200 HZ RMK OBST OBSC QFE756
Время наблюдения
2022-08-09T14:30:00Z
Температура C
24.0
Точка росы
19.0
Направление ветра
10
Скорость ветра (узлы)
8
Метео видимость
1.43
Облачность
BKN
Нижняя граница облачности (футы)
2200
Явления погоды
HZ
Условия полета
IFR
Аэропорт подробнее: 
BKN – значительная (рассеянная, разорванная) облачность;
HZ – мгла (видимость менее 10 км);

Авиационная погода в Череповце

Регион: 
Погода METAR: 
ULWC 091530Z 04003MPS 9999 TS SCT026CB 19/12 Q1023 R21/010063 NOSIG RMK QFE757/1010
Время наблюдения
2022-08-09T15:30:00Z
Температура C
19.0
Точка росы
12.0
Направление ветра
40
Скорость ветра (узлы)
6
Метео видимость
6.21
Облачность
SCT
Нижняя граница облачности (футы)
2600
Явления погоды
TS
Условия полета
VFR
Аэропорт подробнее: 
SCT – разбросанная отдельная облачность;

Авиационная погода в Вадсё

Регион: 
Погода METAR: 
ENVD 091520Z 28005KT 250V300 9999 VCSH SCT049 BKN110 14/10 Q1016
Время наблюдения
2022-08-09T15:20:00Z
Температура C
14.0
Точка росы
10.0
Направление ветра
280
Скорость ветра (узлы)
5
Метео видимость
6.21
Облачность
SCT
BKN
Нижняя граница облачности (футы)
4900
11000
Явления погоды
VCSH
Условия полета
VFR
SCT – разбросанная отдельная облачность; BKN – значительная (рассеянная, разорванная) облачность;